sensor_id;sensor_type;location;lat;lon;timestamp;P1;durP1;ratioP1;P2;durP2;ratioP2
73693;SDS011;61997;53.974;11.670;2023-06-24T00:00:56;18.90;;;12.52;;
73693;SDS011;61997;53.974;11.670;2023-06-24T00:03:31;19.85;;;13.07;;
73693;SDS011;61997;53.974;11.670;2023-06-24T00:06:06;20.63;;;12.00;;
73693;SDS011;61997;53.974;11.670;2023-06-24T00:08:41;17.08;;;11.63;;
73693;SDS011;61997;53.974;11.670;2023-06-24T00:13:46;18.33;;;11.50;;
73693;SDS011;61997;53.974;11.670;2023-06-24T00:16:20;16.92;;;11.18;;
73693;SDS011;61997;53.974;11.670;2023-06-24T00:18:55;16.75;;;10.60;;
73693;SDS011;61997;53.974;11.670;2023-06-24T00:21:27;16.75;;;10.45;;
73693;SDS011;61997;53.974;11.670;2023-06-24T00:24:00;16.85;;;10.55;;
73693;SDS011;61997;53.974;11.670;2023-06-24T00:26:31;16.83;;;10.05;;
73693;SDS011;61997;53.974;11.670;2023-06-24T00:29:04;15.63;;;9.27;;
73693;SDS011;61997;53.974;11.670;2023-06-24T00:31:37;16.52;;;10.18;;
73693;SDS011;61997;53.974;11.670;2023-06-24T00:34:09;14.70;;;10.57;;
73693;SDS011;61997;53.974;11.670;2023-06-24T00:36:39;13.43;;;9.38;;
73693;SDS011;61997;53.974;11.670;2023-06-24T00:39:10;13.57;;;9.15;;
73693;SDS011;61997;53.974;11.670;2023-06-24T00:41:46;12.70;;;8.75;;
73693;SDS011;61997;53.974;11.670;2023-06-24T00:44:14;15.40;;;8.77;;
73693;SDS011;61997;53.974;11.670;2023-06-24T00:46:47;13.32;;;9.10;;
73693;SDS011;61997;53.974;11.670;2023-06-24T00:49:15;13.73;;;9.07;;
73693;SDS011;61997;53.974;11.670;2023-06-24T00:51:48;14.95;;;9.40;;
73693;SDS011;61997;53.974;11.670;2023-06-24T00:54:21;13.93;;;9.32;;
73693;SDS011;61997;53.974;11.670;2023-06-24T00:56:48;14.05;;;9.40;;
73693;SDS011;61997;53.974;11.670;2023-06-24T00:59:17;11.95;;;8.15;;
73693;SDS011;61997;53.974;11.670;2023-06-24T01:01:48;12.43;;;7.85;;
73693;SDS011;61997;53.974;11.670;2023-06-24T01:04:18;12.90;;;7.82;;
73693;SDS011;61997;53.974;11.670;2023-06-24T01:06:47;11.70;;;7.22;;
73693;SDS011;61997;53.974;11.670;2023-06-24T01:09:16;12.07;;;8.15;;
73693;SDS011;61997;53.974;11.670;2023-06-24T01:11:48;12.23;;;7.45;;
73693;SDS011;61997;53.974;11.670;2023-06-24T01:14:16;10.93;;;7.03;;
73693;SDS011;61997;53.974;11.670;2023-06-24T01:25:41;10.20;;;6.68;;
73693;SDS011;61997;53.974;11.670;2023-06-24T01:28:24;9.10;;;6.57;;
73693;SDS011;61997;53.974;11.670;2023-06-24T01:36:59;10.60;;;7.20;;
73693;SDS011;61997;53.974;11.670;2023-06-24T01:39:33;10.60;;;6.10;;
73693;SDS011;61997;53.974;11.670;2023-06-24T01:42:17;8.82;;;6.43;;
73693;SDS011;61997;53.974;11.670;2023-06-24T01:47:21;8.73;;;6.07;;
73693;SDS011;61997;53.974;11.670;2023-06-24T01:49:56;9.70;;;5.70;;
73693;SDS011;61997;53.974;11.670;2023-06-24T01:52:33;8.30;;;6.00;;
73693;SDS011;61997;53.974;11.670;2023-06-24T01:55:06;7.55;;;5.40;;
73693;SDS011;61997;53.974;11.670;2023-06-24T01:57:40;9.40;;;6.38;;
73693;SDS011;61997;53.974;11.670;2023-06-24T02:00:13;7.82;;;5.38;;
73693;SDS011;61997;53.974;11.670;2023-06-24T02:02:46;9.18;;;5.65;;
73693;SDS011;61997;53.974;11.670;2023-06-24T02:05:19;10.77;;;6.00;;
73693;SDS011;61997;53.974;11.670;2023-06-24T02:07:52;8.35;;;5.90;;
73693;SDS011;61997;53.974;11.670;2023-06-24T02:10:26;9.70;;;5.47;;
73693;SDS011;61997;53.974;11.670;2023-06-24T02:12:59;8.77;;;5.65;;
73693;SDS011;61997;53.974;11.670;2023-06-24T02:15:32;7.47;;;5.60;;
73693;SDS011;61997;53.974;11.670;2023-06-24T02:18:08;6.93;;;4.97;;
73693;SDS011;61997;53.974;11.670;2023-06-24T02:20:41;8.30;;;4.90;;
73693;SDS011;61997;53.974;11.670;2023-06-24T02:23:13;8.00;;;5.38;;
73693;SDS011;61997;53.974;11.670;2023-06-24T02:25:45;8.00;;;4.95;;
73693;SDS011;61997;53.974;11.670;2023-06-24T02:28:16;7.63;;;5.45;;
73693;SDS011;61997;53.974;11.670;2023-06-24T02:30:48;8.38;;;5.32;;
73693;SDS011;61997;53.974;11.670;2023-06-24T02:33:17;8.63;;;5.60;;
73693;SDS011;61997;53.974;11.670;2023-06-24T02:35:46;7.85;;;5.32;;
73693;SDS011;61997;53.974;11.670;2023-06-24T02:38:16;8.23;;;5.30;;
73693;SDS011;61997;53.974;11.670;2023-06-24T02:40:50;9.80;;;5.95;;
73693;SDS011;61997;53.974;11.670;2023-06-24T02:43:24;8.32;;;5.38;;
73693;SDS011;61997;53.974;11.670;2023-06-24T02:45:55;6.93;;;4.65;;
73693;SDS011;61997;53.974;11.670;2023-06-24T02:48:30;6.55;;;4.45;;
73693;SDS011;61997;53.974;11.670;2023-06-24T02:51:04;8.65;;;5.30;;
73693;SDS011;61997;53.974;11.670;2023-06-24T02:53:39;9.38;;;5.18;;
73693;SDS011;61997;53.974;11.670;2023-06-24T02:56:07;7.32;;;5.03;;
73693;SDS011;61997;53.974;11.670;2023-06-24T02:58:38;6.45;;;5.32;;
73693;SDS011;61997;53.974;11.670;2023-06-24T03:01:09;8.73;;;5.40;;
73693;SDS011;61997;53.974;11.670;2023-06-24T03:03:43;6.20;;;4.47;;
73693;SDS011;61997;53.974;11.670;2023-06-24T03:06:16;8.68;;;5.22;;
73693;SDS011;61997;53.974;11.670;2023-06-24T03:08:45;7.85;;;4.70;;
73693;SDS011;61997;53.974;11.670;2023-06-24T03:11:18;10.63;;;5.38;;
73693;SDS011;61997;53.974;11.670;2023-06-24T03:13:50;8.68;;;4.70;;
73693;SDS011;61997;53.974;11.670;2023-06-24T03:16:26;7.47;;;4.88;;
73693;SDS011;61997;53.974;11.670;2023-06-24T03:18:58;7.03;;;4.53;;
73693;SDS011;61997;53.974;11.670;2023-06-24T03:21:29;7.40;;;4.90;;
73693;SDS011;61997;53.974;11.670;2023-06-24T03:24:01;7.25;;;4.95;;
73693;SDS011;61997;53.974;11.670;2023-06-24T03:26:34;6.78;;;4.70;;
73693;SDS011;61997;53.974;11.670;2023-06-24T03:29:07;6.90;;;4.80;;
73693;SDS011;61997;53.974;11.670;2023-06-24T03:34:12;6.20;;;4.63;;
73693;SDS011;61997;53.974;11.670;2023-06-24T03:39:18;7.13;;;4.65;;
73693;SDS011;61997;53.974;11.670;2023-06-24T03:41:48;7.30;;;5.03;;
73693;SDS011;61997;53.974;11.670;2023-06-24T03:44:18;9.60;;;5.30;;
73693;SDS011;61997;53.974;11.670;2023-06-24T03:46:49;6.60;;;4.47;;
73693;SDS011;61997;53.974;11.670;2023-06-24T03:49:24;7.60;;;4.80;;
73693;SDS011;61997;53.974;11.670;2023-06-24T03:54:28;6.38;;;4.25;;
73693;SDS011;61997;53.974;11.670;2023-06-24T03:57:04;6.95;;;4.43;;
73693;SDS011;61997;53.974;11.670;2023-06-24T03:59:37;8.48;;;4.35;;
73693;SDS011;61997;53.974;11.670;2023-06-24T04:02:07;7.05;;;4.93;;
73693;SDS011;61997;53.974;11.670;2023-06-24T04:04:41;7.13;;;4.78;;
73693;SDS011;61997;53.974;11.670;2023-06-24T04:07:19;6.88;;;4.90;;
73693;SDS011;61997;53.974;11.670;2023-06-24T04:09:54;7.57;;;4.82;;
73693;SDS011;61997;53.974;11.670;2023-06-24T04:12:27;6.20;;;4.70;;
73693;SDS011;61997;53.974;11.670;2023-06-24T04:14:59;8.10;;;5.22;;
73693;SDS011;61997;53.974;11.670;2023-06-24T04:17:28;8.18;;;5.13;;
73693;SDS011;61997;53.974;11.670;2023-06-24T04:19:59;7.03;;;4.90;;
73693;SDS011;61997;53.974;11.670;2023-06-24T04:22:32;9.07;;;4.78;;
73693;SDS011;61997;53.974;11.670;2023-06-24T04:25:08;5.93;;;4.32;;
73693;SDS011;61997;53.974;11.670;2023-06-24T04:27:40;7.15;;;4.75;;
73693;SDS011;61997;53.974;11.670;2023-06-24T04:30:09;8.15;;;5.40;;
73693;SDS011;61997;53.974;11.670;2023-06-24T04:32:43;7.38;;;4.70;;
73693;SDS011;61997;53.974;11.670;2023-06-24T04:35:15;6.25;;;4.82;;
73693;SDS011;61997;53.974;11.670;2023-06-24T04:37:49;7.95;;;5.15;;
73693;SDS011;61997;53.974;11.670;2023-06-24T04:40:20;7.10;;;4.72;;
73693;SDS011;61997;53.974;11.670;2023-06-24T04:42:54;6.95;;;4.93;;
73693;SDS011;61997;53.974;11.670;2023-06-24T04:45:28;5.82;;;4.25;;
73693;SDS011;61997;53.974;11.670;2023-06-24T04:47:56;6.47;;;4.80;;
73693;SDS011;61997;53.974;11.670;2023-06-24T04:50:29;8.80;;;4.80;;
73693;SDS011;61997;53.974;11.670;2023-06-24T04:53:00;7.00;;;4.40;;
73693;SDS011;61997;53.974;11.670;2023-06-24T04:55:33;5.97;;;4.47;;
73693;SDS011;61997;53.974;11.670;2023-06-24T04:58:09;6.75;;;4.13;;
73693;SDS011;61997;53.974;11.670;2023-06-24T05:03:10;6.78;;;4.53;;
73693;SDS011;61997;53.974;11.670;2023-06-24T05:05:43;6.32;;;4.13;;
73693;SDS011;61997;53.974;11.670;2023-06-24T05:08:14;7.63;;;4.43;;
73693;SDS011;61997;53.974;11.670;2023-06-24T05:10:46;6.38;;;3.85;;
73693;SDS011;61997;53.974;11.670;2023-06-24T05:13:19;7.05;;;4.15;;
73693;SDS011;61997;53.974;11.670;2023-06-24T05:15:50;6.75;;;4.28;;
73693;SDS011;61997;53.974;11.670;2023-06-24T05:18:26;6.53;;;4.45;;
73693;SDS011;61997;53.974;11.670;2023-06-24T05:20:58;6.05;;;4.40;;
73693;SDS011;61997;53.974;11.670;2023-06-24T05:23:29;7.13;;;4.22;;
73693;SDS011;61997;53.974;11.670;2023-06-24T05:26:03;7.25;;;4.03;;
73693;SDS011;61997;53.974;11.670;2023-06-24T05:28:37;5.10;;;3.58;;
73693;SDS011;61997;53.974;11.670;2023-06-24T05:31:16;5.28;;;3.67;;
73693;SDS011;61997;53.974;11.670;2023-06-24T05:33:49;5.53;;;3.60;;
73693;SDS011;61997;53.974;11.670;2023-06-24T05:36:20;6.35;;;3.58;;
73693;SDS011;61997;53.974;11.670;2023-06-24T05:38:51;5.68;;;4.28;;
73693;SDS011;61997;53.974;11.670;2023-06-24T05:41:20;6.13;;;4.28;;
73693;SDS011;61997;53.974;11.670;2023-06-24T05:46:38;6.45;;;4.22;;
73693;SDS011;61997;53.974;11.670;2023-06-24T05:49:09;5.85;;;3.85;;
73693;SDS011;61997;53.974;11.670;2023-06-24T05:51:37;5.80;;;3.88;;
73693;SDS011;61997;53.974;11.670;2023-06-24T05:54:10;5.82;;;3.80;;
73693;SDS011;61997;53.974;11.670;2023-06-24T05:56:42;5.28;;;3.53;;
73693;SDS011;61997;53.974;11.670;2023-06-24T05:59:13;6.07;;;3.90;;
73693;SDS011;61997;53.974;11.670;2023-06-24T06:01:43;6.63;;;3.90;;
73693;SDS011;61997;53.974;11.670;2023-06-24T06:04:14;4.78;;;3.50;;
73693;SDS011;61997;53.974;11.670;2023-06-24T06:06:43;5.72;;;3.83;;
73693;SDS011;61997;53.974;11.670;2023-06-24T06:09:13;7.53;;;3.92;;
73693;SDS011;61997;53.974;11.670;2023-06-24T06:11:43;6.55;;;3.95;;
73693;SDS011;61997;53.974;11.670;2023-06-24T06:14:18;5.90;;;3.83;;
73693;SDS011;61997;53.974;11.670;2023-06-24T06:16:47;7.38;;;3.80;;
73693;SDS011;61997;53.974;11.670;2023-06-24T06:19:17;3.97;;;3.13;;
73693;SDS011;61997;53.974;11.670;2023-06-24T06:21:48;5.75;;;3.60;;
73693;SDS011;61997;53.974;11.670;2023-06-24T06:24:19;5.07;;;3.33;;
73693;SDS011;61997;53.974;11.670;2023-06-24T06:26:48;5.55;;;3.45;;
73693;SDS011;61997;53.974;11.670;2023-06-24T06:29:16;5.45;;;3.72;;
73693;SDS011;61997;53.974;11.670;2023-06-24T06:31:48;5.80;;;3.65;;
73693;SDS011;61997;53.974;11.670;2023-06-24T06:34:16;5.20;;;3.47;;
73693;SDS011;61997;53.974;11.670;2023-06-24T06:36:48;4.63;;;3.00;;
73693;SDS011;61997;53.974;11.670;2023-06-24T06:39:16;6.63;;;4.53;;
73693;SDS011;61997;53.974;11.670;2023-06-24T06:41:42;8.95;;;4.20;;
73693;SDS011;61997;53.974;11.670;2023-06-24T06:44:09;6.88;;;4.47;;
73693;SDS011;61997;53.974;11.670;2023-06-24T06:46:35;5.60;;;4.10;;
73693;SDS011;61997;53.974;11.670;2023-06-24T06:49:00;6.38;;;3.88;;
73693;SDS011;61997;53.974;11.670;2023-06-24T06:51:28;6.28;;;4.10;;
73693;SDS011;61997;53.974;11.670;2023-06-24T06:53:54;5.47;;;4.00;;
73693;SDS011;61997;53.974;11.670;2023-06-24T06:56:22;5.72;;;3.97;;
73693;SDS011;61997;53.974;11.670;2023-06-24T06:58:52;6.90;;;4.30;;
73693;SDS011;61997;53.974;11.670;2023-06-24T07:01:20;7.05;;;4.18;;
73693;SDS011;61997;53.974;11.670;2023-06-24T07:03:49;6.63;;;4.15;;
73693;SDS011;61997;53.974;11.670;2023-06-24T07:06:19;5.75;;;4.25;;
73693;SDS011;61997;53.974;11.670;2023-06-24T07:08:51;7.25;;;3.95;;
73693;SDS011;61997;53.974;11.670;2023-06-24T07:11:22;6.63;;;4.70;;
73693;SDS011;61997;53.974;11.670;2023-06-24T07:13:49;4.95;;;4.03;;
73693;SDS011;61997;53.974;11.670;2023-06-24T07:16:16;6.85;;;4.22;;
73693;SDS011;61997;53.974;11.670;2023-06-24T07:18:49;6.53;;;4.30;;
73693;SDS011;61997;53.974;11.670;2023-06-24T07:21:14;6.43;;;4.47;;
73693;SDS011;61997;53.974;11.670;2023-06-24T07:23:39;6.05;;;3.92;;
73693;SDS011;61997;53.974;11.670;2023-06-24T07:26:05;6.53;;;4.32;;
73693;SDS011;61997;53.974;11.670;2023-06-24T07:28:30;6.07;;;4.30;;
73693;SDS011;61997;53.974;11.670;2023-06-24T07:30:56;5.88;;;3.95;;
73693;SDS011;61997;53.974;11.670;2023-06-24T07:33:24;5.70;;;4.22;;
73693;SDS011;61997;53.974;11.670;2023-06-24T07:35:57;6.65;;;4.78;;
73693;SDS011;61997;53.974;11.670;2023-06-24T07:38:23;6.15;;;4.43;;
73693;SDS011;61997;53.974;11.670;2023-06-24T07:40:50;6.93;;;4.55;;
73693;SDS011;61997;53.974;11.670;2023-06-24T07:43:18;7.18;;;4.65;;
73693;SDS011;61997;53.974;11.670;2023-06-24T07:45:49;6.60;;;3.75;;
73693;SDS011;61997;53.974;11.670;2023-06-24T07:48:16;6.53;;;4.18;;
73693;SDS011;61997;53.974;11.670;2023-06-24T07:50:48;7.07;;;4.35;;
73693;SDS011;61997;53.974;11.670;2023-06-24T07:53:17;4.80;;;3.75;;
73693;SDS011;61997;53.974;11.670;2023-06-24T07:55:49;5.55;;;4.05;;
73693;SDS011;61997;53.974;11.670;2023-06-24T07:58:18;6.35;;;4.43;;
73693;SDS011;61997;53.974;11.670;2023-06-24T08:00:50;7.70;;;4.95;;
73693;SDS011;61997;53.974;11.670;2023-06-24T08:03:21;7.20;;;4.55;;
73693;SDS011;61997;53.974;11.670;2023-06-24T08:05:50;7.40;;;4.35;;
73693;SDS011;61997;53.974;11.670;2023-06-24T08:08:24;5.93;;;3.95;;
73693;SDS011;61997;53.974;11.670;2023-06-24T08:10:49;7.32;;;4.32;;
73693;SDS011;61997;53.974;11.670;2023-06-24T08:13:15;6.35;;;4.28;;
73693;SDS011;61997;53.974;11.670;2023-06-24T08:15:47;6.00;;;4.00;;
73693;SDS011;61997;53.974;11.670;2023-06-24T08:18:19;5.88;;;4.22;;
73693;SDS011;61997;53.974;11.670;2023-06-24T08:20:48;6.72;;;4.38;;
73693;SDS011;61997;53.974;11.670;2023-06-24T08:23:21;6.90;;;4.65;;
73693;SDS011;61997;53.974;11.670;2023-06-24T08:25:57;6.97;;;4.40;;
73693;SDS011;61997;53.974;11.670;2023-06-24T08:28:30;6.65;;;4.18;;
73693;SDS011;61997;53.974;11.670;2023-06-24T08:31:02;6.53;;;4.18;;
73693;SDS011;61997;53.974;11.670;2023-06-24T08:33:34;6.53;;;4.30;;
73693;SDS011;61997;53.974;11.670;2023-06-24T08:36:02;5.55;;;4.30;;
73693;SDS011;61997;53.974;11.670;2023-06-24T08:38:37;6.22;;;4.50;;
73693;SDS011;61997;53.974;11.670;2023-06-24T08:41:14;6.38;;;4.53;;
73693;SDS011;61997;53.974;11.670;2023-06-24T08:43:47;5.78;;;4.13;;
73693;SDS011;61997;53.974;11.670;2023-06-24T08:46:18;6.47;;;4.22;;
73693;SDS011;61997;53.974;11.670;2023-06-24T08:48:51;5.35;;;3.90;;
73693;SDS011;61997;53.974;11.670;2023-06-24T08:51:31;6.68;;;4.32;;
73693;SDS011;61997;53.974;11.670;2023-06-24T08:54:04;6.22;;;4.45;;
73693;SDS011;61997;53.974;11.670;2023-06-24T08:56:39;5.93;;;4.20;;
73693;SDS011;61997;53.974;11.670;2023-06-24T08:59:10;5.82;;;3.65;;
73693;SDS011;61997;53.974;11.670;2023-06-24T09:01:48;6.10;;;4.00;;
73693;SDS011;61997;53.974;11.670;2023-06-24T09:04:18;6.43;;;4.03;;
73693;SDS011;61997;53.974;11.670;2023-06-24T09:06:51;5.20;;;3.90;;
73693;SDS011;61997;53.974;11.670;2023-06-24T09:09:21;5.90;;;3.75;;
73693;SDS011;61997;53.974;11.670;2023-06-24T09:11:55;5.32;;;3.58;;
73693;SDS011;61997;53.974;11.670;2023-06-24T09:14:25;5.88;;;4.10;;
73693;SDS011;61997;53.974;11.670;2023-06-24T09:17:00;5.72;;;4.03;;
73693;SDS011;61997;53.974;11.670;2023-06-24T09:19:34;6.75;;;4.10;;
73693;SDS011;61997;53.974;11.670;2023-06-24T09:22:10;6.00;;;3.85;;
73693;SDS011;61997;53.974;11.670;2023-06-24T09:24:45;6.78;;;4.68;;
73693;SDS011;61997;53.974;11.670;2023-06-24T09:27:17;6.55;;;4.32;;
73693;SDS011;61997;53.974;11.670;2023-06-24T09:29:48;6.55;;;4.07;;
73693;SDS011;61997;53.974;11.670;2023-06-24T09:32:21;5.88;;;4.53;;
73693;SDS011;61997;53.974;11.670;2023-06-24T09:35:00;7.00;;;4.13;;
73693;SDS011;61997;53.974;11.670;2023-06-24T09:37:28;5.63;;;3.92;;
73693;SDS011;61997;53.974;11.670;2023-06-24T09:40:00;5.75;;;3.83;;
73693;SDS011;61997;53.974;11.670;2023-06-24T09:42:33;4.82;;;3.50;;
73693;SDS011;61997;53.974;11.670;2023-06-24T09:45:11;5.47;;;3.40;;
73693;SDS011;61997;53.974;11.670;2023-06-24T09:47:46;5.07;;;3.45;;
73693;SDS011;61997;53.974;11.670;2023-06-24T09:50:19;5.97;;;3.90;;
73693;SDS011;61997;53.974;11.670;2023-06-24T09:52:51;5.43;;;3.60;;
73693;SDS011;61997;53.974;11.670;2023-06-24T09:55:25;6.57;;;3.65;;
73693;SDS011;61997;53.974;11.670;2023-06-24T09:57:58;4.68;;;3.92;;
73693;SDS011;61997;53.974;11.670;2023-06-24T10:00:24;6.32;;;4.05;;
73693;SDS011;61997;53.974;11.670;2023-06-24T10:02:54;5.07;;;3.80;;
73693;SDS011;61997;53.974;11.670;2023-06-24T10:05:25;6.88;;;3.70;;
73693;SDS011;61997;53.974;11.670;2023-06-24T10:07:55;4.32;;;3.30;;
73693;SDS011;61997;53.974;11.670;2023-06-24T10:10:32;5.53;;;3.80;;
73693;SDS011;61997;53.974;11.670;2023-06-24T10:13:04;5.20;;;3.33;;
73693;SDS011;61997;53.974;11.670;2023-06-24T10:15:34;6.10;;;3.63;;
73693;SDS011;61997;53.974;11.670;2023-06-24T10:21:00;5.03;;;3.55;;
73693;SDS011;61997;53.974;11.670;2023-06-24T10:23:39;5.45;;;3.45;;
73693;SDS011;61997;53.974;11.670;2023-06-24T10:26:27;4.68;;;3.60;;
73693;SDS011;61997;53.974;11.670;2023-06-24T10:36:56;5.30;;;3.70;;
73693;SDS011;61997;53.974;11.670;2023-06-24T10:39:36;5.43;;;3.30;;
73693;SDS011;61997;53.974;11.670;2023-06-24T10:45:14;5.05;;;3.47;;
73693;SDS011;61997;53.974;11.670;2023-06-24T10:47:47;4.38;;;2.95;;
73693;SDS011;61997;53.974;11.670;2023-06-24T10:50:20;4.22;;;2.88;;
73693;SDS011;61997;53.974;11.670;2023-06-24T10:52:55;5.47;;;3.20;;
73693;SDS011;61997;53.974;11.670;2023-06-24T10:55:28;5.50;;;3.50;;
73693;SDS011;61997;53.974;11.670;2023-06-24T10:58:06;5.10;;;3.40;;
73693;SDS011;61997;53.974;11.670;2023-06-24T11:00:41;4.93;;;3.22;;
73693;SDS011;61997;53.974;11.670;2023-06-24T11:03:17;5.43;;;3.65;;
73693;SDS011;61997;53.974;11.670;2023-06-24T11:05:49;6.40;;;4.13;;
73693;SDS011;61997;53.974;11.670;2023-06-24T11:08:24;6.13;;;4.30;;
73693;SDS011;61997;53.974;11.670;2023-06-24T11:10:51;5.47;;;4.00;;
73693;SDS011;61997;53.974;11.670;2023-06-24T11:13:20;6.32;;;4.20;;
73693;SDS011;61997;53.974;11.670;2023-06-24T11:15:51;6.40;;;4.65;;
73693;SDS011;61997;53.974;11.670;2023-06-24T11:20:44;6.78;;;4.60;;
73693;SDS011;61997;53.974;11.670;2023-06-24T11:23:10;6.25;;;4.53;;
73693;SDS011;61997;53.974;11.670;2023-06-24T11:25:40;7.15;;;4.22;;
73693;SDS011;61997;53.974;11.670;2023-06-24T11:28:15;7.70;;;4.50;;
73693;SDS011;61997;53.974;11.670;2023-06-24T11:30:45;6.85;;;4.50;;
73693;SDS011;61997;53.974;11.670;2023-06-24T11:33:12;6.90;;;4.32;;
73693;SDS011;61997;53.974;11.670;2023-06-24T11:35:39;6.63;;;4.00;;
73693;SDS011;61997;53.974;11.670;2023-06-24T11:38:07;7.18;;;4.72;;
73693;SDS011;61997;53.974;11.670;2023-06-24T11:40:35;5.85;;;4.35;;
73693;SDS011;61997;53.974;11.670;2023-06-24T11:43:01;6.47;;;4.90;;
73693;SDS011;61997;53.974;11.670;2023-06-24T11:45:27;6.95;;;4.35;;
73693;SDS011;61997;53.974;11.670;2023-06-24T11:47:52;6.90;;;4.03;;
73693;SDS011;61997;53.974;11.670;2023-06-24T11:50:18;6.63;;;4.68;;
73693;SDS011;61997;53.974;11.670;2023-06-24T11:52:51;7.03;;;4.50;;
73693;SDS011;61997;53.974;11.670;2023-06-24T11:55:24;6.10;;;4.40;;
73693;SDS011;61997;53.974;11.670;2023-06-24T11:57:57;6.00;;;4.18;;
73693;SDS011;61997;53.974;11.670;2023-06-24T12:00:29;6.38;;;4.30;;
73693;SDS011;61997;53.974;11.670;2023-06-24T12:03:00;6.90;;;4.60;;
73693;SDS011;61997;53.974;11.670;2023-06-24T12:10:31;5.82;;;3.97;;
73693;SDS011;61997;53.974;11.670;2023-06-24T12:13:02;6.60;;;4.20;;
73693;SDS011;61997;53.974;11.670;2023-06-24T12:15:30;5.47;;;4.47;;
73693;SDS011;61997;53.974;11.670;2023-06-24T12:17:56;5.70;;;4.05;;
73693;SDS011;61997;53.974;11.670;2023-06-24T12:20:21;5.57;;;4.07;;
73693;SDS011;61997;53.974;11.670;2023-06-24T12:22:49;6.80;;;4.47;;
73693;SDS011;61997;53.974;11.670;2023-06-24T12:25:15;6.15;;;3.90;;
73693;SDS011;61997;53.974;11.670;2023-06-24T12:27:42;5.47;;;4.15;;
73693;SDS011;61997;53.974;11.670;2023-06-24T12:30:10;5.13;;;3.80;;
73693;SDS011;61997;53.974;11.670;2023-06-24T12:32:38;5.82;;;4.13;;
73693;SDS011;61997;53.974;11.670;2023-06-24T12:35:10;10.15;;;4.30;;
73693;SDS011;61997;53.974;11.670;2023-06-24T12:37:41;6.32;;;4.13;;
73693;SDS011;61997;53.974;11.670;2023-06-24T12:40:10;6.43;;;4.10;;
73693;SDS011;61997;53.974;11.670;2023-06-24T12:42:36;5.82;;;3.67;;
73693;SDS011;61997;53.974;11.670;2023-06-24T12:45:04;6.20;;;4.13;;
73693;SDS011;61997;53.974;11.670;2023-06-24T12:47:30;5.70;;;4.15;;
73693;SDS011;61997;53.974;11.670;2023-06-24T12:49:58;5.85;;;3.75;;
73693;SDS011;61997;53.974;11.670;2023-06-24T12:52:26;5.55;;;3.55;;
73693;SDS011;61997;53.974;11.670;2023-06-24T12:54:53;5.50;;;3.20;;
73693;SDS011;61997;53.974;11.670;2023-06-24T12:57:21;5.00;;;3.42;;
73693;SDS011;61997;53.974;11.670;2023-06-24T12:59:47;4.45;;;3.53;;
73693;SDS011;61997;53.974;11.670;2023-06-24T13:02:13;6.25;;;3.90;;
73693;SDS011;61997;53.974;11.670;2023-06-24T13:04:39;5.25;;;3.50;;
73693;SDS011;61997;53.974;11.670;2023-06-24T13:07:08;4.85;;;3.53;;
73693;SDS011;61997;53.974;11.670;2023-06-24T13:12:06;4.75;;;3.50;;
73693;SDS011;61997;53.974;11.670;2023-06-24T13:14:37;6.05;;;3.95;;
73693;SDS011;61997;53.974;11.670;2023-06-24T13:17:08;4.80;;;3.53;;
73693;SDS011;61997;53.974;11.670;2023-06-24T13:19:37;6.20;;;3.95;;
73693;SDS011;61997;53.974;11.670;2023-06-24T13:22:08;5.93;;;3.83;;
73693;SDS011;61997;53.974;11.670;2023-06-24T13:24:35;4.18;;;3.30;;
73693;SDS011;61997;53.974;11.670;2023-06-24T13:27:02;5.82;;;3.88;;
73693;SDS011;61997;53.974;11.670;2023-06-24T13:29:29;4.97;;;3.08;;
73693;SDS011;61997;53.974;11.670;2023-06-24T13:31:57;4.80;;;3.53;;
73693;SDS011;61997;53.974;11.670;2023-06-24T13:34:23;4.32;;;3.40;;
73693;SDS011;61997;53.974;11.670;2023-06-24T13:36:48;5.15;;;3.25;;
73693;SDS011;61997;53.974;11.670;2023-06-24T13:39:14;5.07;;;3.40;;
73693;SDS011;61997;53.974;11.670;2023-06-24T13:41:42;6.15;;;4.00;;
73693;SDS011;61997;53.974;11.670;2023-06-24T13:44:09;6.25;;;3.58;;
73693;SDS011;61997;53.974;11.670;2023-06-24T13:46:35;4.93;;;3.35;;
73693;SDS011;61997;53.974;11.670;2023-06-24T13:49:01;5.30;;;3.75;;
73693;SDS011;61997;53.974;11.670;2023-06-24T13:51:27;5.15;;;3.30;;
73693;SDS011;61997;53.974;11.670;2023-06-24T13:53:53;5.15;;;3.42;;
73693;SDS011;61997;53.974;11.670;2023-06-24T13:56:24;4.72;;;3.55;;
73693;SDS011;61997;53.974;11.670;2023-06-24T13:58:50;5.35;;;3.60;;
73693;SDS011;61997;53.974;11.670;2023-06-24T14:01:22;5.85;;;3.28;;
73693;SDS011;61997;53.974;11.670;2023-06-24T14:03:48;5.05;;;3.30;;
73693;SDS011;61997;53.974;11.670;2023-06-24T14:06:14;5.05;;;3.00;;
73693;SDS011;61997;53.974;11.670;2023-06-24T14:08:41;4.45;;;2.90;;
73693;SDS011;61997;53.974;11.670;2023-06-24T14:11:07;5.50;;;3.45;;
73693;SDS011;61997;53.974;11.670;2023-06-24T14:13:33;3.80;;;3.22;;
73693;SDS011;61997;53.974;11.670;2023-06-24T14:15:58;4.43;;;3.00;;
73693;SDS011;61997;53.974;11.670;2023-06-24T14:18:24;4.97;;;3.55;;
73693;SDS011;61997;53.974;11.670;2023-06-24T14:20:50;5.68;;;3.40;;
73693;SDS011;61997;53.974;11.670;2023-06-24T14:23:16;6.18;;;3.42;;
73693;SDS011;61997;53.974;11.670;2023-06-24T14:25:42;4.32;;;3.22;;
73693;SDS011;61997;53.974;11.670;2023-06-24T14:28:07;4.80;;;3.33;;
73693;SDS011;61997;53.974;11.670;2023-06-24T14:30:33;5.07;;;3.55;;
73693;SDS011;61997;53.974;11.670;2023-06-24T14:33:00;3.42;;;3.00;;
73693;SDS011;61997;53.974;11.670;2023-06-24T14:35:25;4.80;;;2.85;;
73693;SDS011;61997;53.974;11.670;2023-06-24T14:37:51;5.13;;;3.45;;
73693;SDS011;61997;53.974;11.670;2023-06-24T14:40:17;5.00;;;3.35;;
73693;SDS011;61997;53.974;11.670;2023-06-24T14:42:42;4.43;;;2.95;;
73693;SDS011;61997;53.974;11.670;2023-06-24T14:45:08;4.55;;;3.08;;
73693;SDS011;61997;53.974;11.670;2023-06-24T14:47:34;4.70;;;3.15;;
73693;SDS011;61997;53.974;11.670;2023-06-24T14:49:59;5.25;;;3.20;;
73693;SDS011;61997;53.974;11.670;2023-06-24T14:52:25;4.78;;;2.92;;
73693;SDS011;61997;53.974;11.670;2023-06-24T14:54:50;4.90;;;3.47;;
73693;SDS011;61997;53.974;11.670;2023-06-24T14:57:16;4.32;;;2.97;;
73693;SDS011;61997;53.974;11.670;2023-06-24T14:59:42;4.22;;;3.10;;
73693;SDS011;61997;53.974;11.670;2023-06-24T15:02:07;4.00;;;2.90;;
73693;SDS011;61997;53.974;11.670;2023-06-24T15:04:33;5.10;;;3.30;;
73693;SDS011;61997;53.974;11.670;2023-06-24T15:07:00;5.20;;;3.55;;
73693;SDS011;61997;53.974;11.670;2023-06-24T15:09:25;4.35;;;3.13;;
73693;SDS011;61997;53.974;11.670;2023-06-24T15:11:51;4.72;;;3.17;;
73693;SDS011;61997;53.974;11.670;2023-06-24T15:14:17;5.05;;;3.22;;
73693;SDS011;61997;53.974;11.670;2023-06-24T15:16:43;5.68;;;3.00;;
73693;SDS011;61997;53.974;11.670;2023-06-24T15:19:10;4.43;;;3.38;;
73693;SDS011;61997;53.974;11.670;2023-06-24T15:21:38;4.63;;;3.45;;
73693;SDS011;61997;53.974;11.670;2023-06-24T15:24:06;3.83;;;2.78;;
73693;SDS011;61997;53.974;11.670;2023-06-24T15:26:34;4.13;;;3.00;;
73693;SDS011;61997;53.974;11.670;2023-06-24T15:29:02;3.80;;;2.97;;
73693;SDS011;61997;53.974;11.670;2023-06-24T15:31:29;3.50;;;2.72;;
73693;SDS011;61997;53.974;11.670;2023-06-24T15:33:55;3.85;;;2.42;;
73693;SDS011;61997;53.974;11.670;2023-06-24T15:36:23;4.18;;;3.03;;
73693;SDS011;61997;53.974;11.670;2023-06-24T15:38:51;4.45;;;3.40;;
73693;SDS011;61997;53.974;11.670;2023-06-24T15:41:18;4.32;;;2.78;;
73693;SDS011;61997;53.974;11.670;2023-06-24T15:43:45;5.32;;;2.92;;
73693;SDS011;61997;53.974;11.670;2023-06-24T15:46:12;3.28;;;2.53;;
73693;SDS011;61997;53.974;11.670;2023-06-24T15:48:40;4.63;;;3.00;;